Bristol, New Hampshire
Current Conditions -  °F | °C
As of 7:15 AM on Monday 26 Jan 2015 (Local Time) from K1P1 Reporting Station
Clear Clear  
Wind Chill: -9°   Ceiling: Unl
Heat Index:   Visibility: 10mi
Dew Point: -2°   Wind: 7mph
Humidity: 81%   Direction: 310°NW
Pressure: 30.12"   Gusts: NA
Location:  43.6°N, 71.75°W
Report Text: K1P1 261215Z AUTO 31006KT 10SM CLR M16/M19 A3012 RMK AO2 T11611187
Loading
Personal Weather Stations






























Interactive Weather Map New forecast layout! Learn more

10-Day Weather Forecast

Advertisements
Track Severe Weather on mobile